Terminal Aerodrome Forecast
Issued by NWS

Home | Current Version | Previous Version | Text Only | Print | Product List | Glossary On
Versions: 1 2 3 4 5 6 7 8 9 10 11 12 13 14 15 16 17 18 19 20 21 22 23 24 25 26 27 28
000
FTUS45 KREV 201721
TAFTVL
TAF
KTVL 201721Z 2018/2118 18004KT P6SM FEW100 SCT180
     FM210000 20006KT P6SM SCT070 OVC120=

USA.gov is the U.S. government's official web portal to all federal, state and local government web resources and services.